createdAt,value
2023-03-17T00:01:58.676Z,12.10
2023-03-17T00:04:27.897Z,12.10
2023-03-17T00:06:56.748Z,12.10
2023-03-17T00:09:27.317Z,12.10
2023-03-17T00:11:55.309Z,12.10
2023-03-17T00:14:23.084Z,12.10
2023-03-17T00:16:52.051Z,12.10
2023-03-17T00:19:46.147Z,12.10
2023-03-17T00:22:18.113Z,12.10
2023-03-17T00:24:48.500Z,12.10
2023-03-17T00:27:17.972Z,12.10
2023-03-17T00:29:45.760Z,12.10
2023-03-17T00:32:20.458Z,12.10
2023-03-17T00:34:52.398Z,12.10
2023-03-17T00:37:20.390Z,12.10
2023-03-17T00:39:50.450Z,12.10
2023-03-17T00:42:19.092Z,12.10
2023-03-17T00:44:49.102Z,12.10
2023-03-17T00:47:17.305Z,12.10
2023-03-17T00:49:45.162Z,12.20
2023-03-17T00:52:13.226Z,12.20
2023-03-17T00:54:42.469Z,12.20
2023-03-17T00:57:11.174Z,12.20
2023-03-17T00:59:42.301Z,12.20
2023-03-17T01:02:13.268Z,12.20
2023-03-17T01:04:44.037Z,12.20
2023-03-17T01:07:14.446Z,12.20
2023-03-17T01:09:43.924Z,12.20
2023-03-17T01:12:14.348Z,12.20
2023-03-17T01:14:42.053Z,12.20
2023-03-17T01:17:16.924Z,12.30
2023-03-17T01:19:48.713Z,12.30
2023-03-17T01:22:52.343Z,12.30
2023-03-17T01:25:20.801Z,12.30
2023-03-17T01:27:49.350Z,12.30
2023-03-17T01:30:23.301Z,12.30
2023-03-17T01:32:51.231Z,12.20
2023-03-17T01:35:20.338Z,12.30
2023-03-17T01:37:51.128Z,12.30
2023-03-17T01:40:23.229Z,12.30
2023-03-17T01:43:04.532Z,12.30
2023-03-17T01:46:09.973Z,12.30
2023-03-17T01:48:55.714Z,12.30
2023-03-17T01:51:33.712Z,12.30
2023-03-17T01:54:06.780Z,12.30
2023-03-17T01:56:36.483Z,12.30
2023-03-17T01:59:07.614Z,12.30
2023-03-17T02:01:43.618Z,12.30
2023-03-17T02:04:13.006Z,12.30
2023-03-17T02:06:54.992Z,12.30
2023-03-17T02:09:26.395Z,12.30
2023-03-17T02:11:55.686Z,12.30
2023-03-17T02:14:23.820Z,12.30
2023-03-17T02:16:51.982Z,12.30
2023-03-17T02:19:20.036Z,12.30
2023-03-17T02:21:52.018Z,12.20
2023-03-17T02:24:35.996Z,12.30
2023-03-17T02:27:16.144Z,12.20
2023-03-17T02:29:46.465Z,12.20
2023-03-17T02:32:17.732Z,12.20
2023-03-17T02:34:51.441Z,12.20
2023-03-17T02:37:20.640Z,12.20
2023-03-17T02:39:48.324Z,12.20
2023-03-17T02:42:18.534Z,12.20
2023-03-17T02:44:46.399Z,12.20
2023-03-17T02:47:14.884Z,12.20
2023-03-17T02:49:44.129Z,12.20
2023-03-17T02:52:12.476Z,12.20
2023-03-17T02:54:40.470Z,12.20
2023-03-17T02:57:08.917Z,12.20
2023-03-17T02:59:36.792Z,12.20
2023-03-17T03:02:04.821Z,12.20
2023-03-17T03:04:32.813Z,12.20
2023-03-17T03:07:04.173Z,12.20
2023-03-17T03:09:32.034Z,12.20
2023-03-17T03:12:00.634Z,12.20
2023-03-17T03:14:32.532Z,12.20
2023-03-17T03:17:00.674Z,12.20
2023-03-17T03:19:28.426Z,12.20
2023-03-17T03:21:56.441Z,12.20
2023-03-17T03:24:24.291Z,12.20
2023-03-17T03:26:52.544Z,12.20
2023-03-17T03:29:20.383Z,12.10
2023-03-17T03:31:50.998Z,12.20
2023-03-17T03:34:19.144Z,12.20
2023-03-17T03:36:49.474Z,12.20
2023-03-17T03:39:17.293Z,12.20
2023-03-17T03:41:45.337Z,12.20
2023-03-17T03:44:15.509Z,12.20
2023-03-17T03:46:43.518Z,12.20
2023-03-17T03:49:11.348Z,12.30
2023-03-17T03:51:39.323Z,12.30
2023-03-17T03:54:09.280Z,12.20
2023-03-17T03:56:37.305Z,12.30
2023-03-17T03:59:04.977Z,12.30
2023-03-17T04:01:33.089Z,12.30
2023-03-17T04:04:01.152Z,12.30
2023-03-17T04:06:29.185Z,12.30
2023-03-17T04:08:58.326Z,12.30
2023-03-17T04:11:26.532Z,12.30
2023-03-17T04:13:54.312Z,12.20
2023-03-17T04:16:22.493Z,12.30
2023-03-17T04:18:50.301Z,12.30
2023-03-17T04:21:19.084Z,12.30
2023-03-17T04:23:49.804Z,12.30
2023-03-17T04:26:18.805Z,12.30
2023-03-17T04:28:46.578Z,12.20
2023-03-17T04:31:14.992Z,12.20
2023-03-17T04:33:42.771Z,12.20
2023-03-17T04:36:20.012Z,12.20
2023-03-17T04:38:48.059Z,12.20
2023-03-17T04:41:18.654Z,12.20
2023-03-17T04:43:46.595Z,12.20
2023-03-17T04:46:14.952Z,12.20
2023-03-17T04:48:42.736Z,12.10
2023-03-17T04:51:11.867Z,12.10
2023-03-17T04:53:40.104Z,12.10
2023-03-17T04:56:08.674Z,12.10
2023-03-17T04:58:36.541Z,12.00
2023-03-17T05:01:05.245Z,12.00
2023-03-17T05:03:33.373Z,12.00
2023-03-17T05:06:02.599Z,12.00
2023-03-17T05:08:30.889Z,11.90
2023-03-17T05:10:59.177Z,11.90
2023-03-17T05:13:27.591Z,11.90
2023-03-17T05:15:56.313Z,11.90
2023-03-17T05:18:26.001Z,11.80
2023-03-17T05:20:54.568Z,11.80
2023-03-17T05:23:23.047Z,11.80
2023-03-17T05:25:51.246Z,11.80
2023-03-17T05:28:20.906Z,11.80
2023-03-17T05:30:50.201Z,11.80
2023-03-17T05:33:18.126Z,11.80
2023-03-17T05:35:47.306Z,11.70
2023-03-17T05:38:17.849Z,11.70
2023-03-17T05:40:45.983Z,11.70
2023-03-17T05:43:14.137Z,11.70
2023-03-17T05:45:42.343Z,11.70
2023-03-17T05:48:12.334Z,11.70
2023-03-17T05:50:41.781Z,11.70
2023-03-17T05:53:12.384Z,11.70
2023-03-17T05:55:43.069Z,11.70
2023-03-17T05:58:11.401Z,11.70
2023-03-17T06:00:39.487Z,11.70
2023-03-17T06:03:07.847Z,11.70
2023-03-17T06:05:36.864Z,11.70
2023-03-17T06:08:05.751Z,11.70
2023-03-17T06:10:34.095Z,11.70
2023-03-17T06:13:04.003Z,11.70
2023-03-17T06:15:34.230Z,11.70
2023-03-17T06:18:05.228Z,11.70
2023-03-17T06:20:34.070Z,11.70
2023-03-17T06:23:05.226Z,11.70
2023-03-17T06:25:35.059Z,11.70
2023-03-17T06:28:05.843Z,11.70
2023-03-17T06:30:35.256Z,11.60
2023-03-17T06:33:04.003Z,11.70
2023-03-17T06:35:33.525Z,11.70
2023-03-17T06:38:02.361Z,11.70
2023-03-17T06:40:32.130Z,11.70
2023-03-17T06:43:00.321Z,11.70
2023-03-17T06:45:28.542Z,11.60
2023-03-17T06:47:57.092Z,11.60
2023-03-17T06:50:25.819Z,11.70
2023-03-17T06:52:53.534Z,11.60
2023-03-17T06:55:21.599Z,11.70
2023-03-17T06:57:51.240Z,11.70
2023-03-17T07:00:21.198Z,11.60
2023-03-17T07:02:49.671Z,11.60
2023-03-17T07:05:18.068Z,11.60
2023-03-17T07:07:46.216Z,11.60
2023-03-17T07:10:15.918Z,11.60
2023-03-17T07:12:44.829Z,11.60
2023-03-17T07:15:13.157Z,11.60
2023-03-17T07:17:41.764Z,11.60
2023-03-17T07:20:10.950Z,11.60
2023-03-17T07:22:38.739Z,11.60
2023-03-17T07:25:08.048Z,11.60
2023-03-17T07:27:35.943Z,11.70
2023-03-17T07:30:05.233Z,11.70
2023-03-17T07:32:33.306Z,11.70
2023-03-17T07:35:01.465Z,11.80
2023-03-17T07:37:29.455Z,11.80
2023-03-17T07:39:57.555Z,11.80
2023-03-17T07:42:25.301Z,11.80
2023-03-17T07:44:53.304Z,11.90
2023-03-17T07:47:21.072Z,11.90
2023-03-17T07:49:49.090Z,11.90
2023-03-17T07:52:16.953Z,11.90
2023-03-17T07:54:47.478Z,12.00
2023-03-17T07:57:16.857Z,12.00
2023-03-17T07:59:44.936Z,12.00
2023-03-17T08:02:16.386Z,12.00
2023-03-17T08:04:45.631Z,12.00
2023-03-17T08:07:13.525Z,11.90
2023-03-17T08:09:41.836Z,12.00
2023-03-17T08:12:10.124Z,11.90
2023-03-17T08:14:38.191Z,11.90
2023-03-17T08:17:06.433Z,11.90
2023-03-17T08:19:34.576Z,11.90
2023-03-17T08:22:02.342Z,11.90
2023-03-17T08:24:30.555Z,11.80
2023-03-17T08:27:00.800Z,11.80
2023-03-17T08:29:30.020Z,11.80
2023-03-17T08:31:57.972Z,11.80
2023-03-17T08:34:26.424Z,11.90
2023-03-17T08:36:54.284Z,11.90
2023-03-17T08:39:22.592Z,11.90
2023-03-17T08:41:51.081Z,11.90
2023-03-17T08:44:21.927Z,12.00
2023-03-17T08:46:50.314Z,12.00
2023-03-17T08:49:18.458Z,12.00
2023-03-17T08:51:46.360Z,12.00
2023-03-17T08:54:15.309Z,12.00
2023-03-17T08:56:45.756Z,12.00
2023-03-17T08:59:17.034Z,12.00
2023-03-17T09:04:01.788Z,12.10
2023-03-17T09:06:30.472Z,12.00
2023-03-17T09:08:58.482Z,12.10
2023-03-17T09:11:28.749Z,12.10
2023-03-17T09:13:56.698Z,12.10
2023-03-17T09:16:25.484Z,12.10
2023-03-17T09:18:54.001Z,12.10
2023-03-17T09:21:22.424Z,12.10
2023-03-17T09:23:50.139Z,12.10
2023-03-17T09:26:19.672Z,12.10
2023-03-17T09:28:47.525Z,12.10
2023-03-17T09:31:15.698Z,12.10
2023-03-17T09:33:43.918Z,12.10
2023-03-17T09:36:12.212Z,12.20
2023-03-17T09:38:40.096Z,12.20
2023-03-17T09:41:19.933Z,12.20
2023-03-17T09:44:29.484Z,12.30
2023-03-17T09:47:59.425Z,12.30
2023-03-17T09:50:33.424Z,12.40
2023-03-17T09:53:04.037Z,12.40
2023-03-17T09:55:34.403Z,12.40
2023-03-17T09:58:03.745Z,12.40
2023-03-17T10:00:32.823Z,12.50
2023-03-17T10:03:01.947Z,12.60
2023-03-17T10:05:33.202Z,12.70
2023-03-17T10:08:31.791Z,12.70
2023-03-17T10:11:20.523Z,12.80
2023-03-17T10:13:58.689Z,12.90
2023-03-17T10:16:54.765Z,13.00
2023-03-17T10:19:28.492Z,13.00
2023-03-17T10:22:10.443Z,12.90
2023-03-17T10:24:43.644Z,12.90
2023-03-17T10:27:15.408Z,12.90
2023-03-17T10:29:43.301Z,12.90
2023-03-17T10:32:13.641Z,13.00
2023-03-17T10:34:42.851Z,13.00
2023-03-17T10:37:17.643Z,13.00
2023-03-17T10:39:54.705Z,13.00
2023-03-17T10:42:33.191Z,13.00
2023-03-17T10:45:31.555Z,13.00
2023-03-17T10:48:02.749Z,13.00
2023-03-17T10:50:39.710Z,13.00
2023-03-17T10:53:18.333Z,13.10
2023-03-17T10:55:54.369Z,13.10
2023-03-17T10:58:31.730Z,13.10
2023-03-17T11:01:07.983Z,13.00
2023-03-17T11:03:39.792Z,13.10
2023-03-17T11:06:12.946Z,13.00
2023-03-17T11:08:50.698Z,13.00
2023-03-17T11:11:30.934Z,13.00
2023-03-17T11:14:06.470Z,13.00
2023-03-17T11:16:37.667Z,13.00
2023-03-17T11:19:13.127Z,13.00
2023-03-17T11:22:05.117Z,13.00
2023-03-17T11:24:41.514Z,12.90
2023-03-17T11:27:20.956Z,13.00
2023-03-17T11:29:58.330Z,13.00
2023-03-17T11:32:37.135Z,13.00
2023-03-17T11:35:14.610Z,13.00
2023-03-17T11:38:01.129Z,13.00
2023-03-17T11:40:36.088Z,13.00
2023-03-17T11:43:20.300Z,13.00
2023-03-17T11:46:18.446Z,13.00
2023-03-17T11:48:57.795Z,13.00
2023-03-17T11:51:51.651Z,12.90
2023-03-17T11:54:40.048Z,12.90
2023-03-17T11:57:30.671Z,12.90
2023-03-17T12:00:07.394Z,12.90
2023-03-17T12:02:47.673Z,12.90
2023-03-17T12:05:24.233Z,12.80
2023-03-17T12:08:42.580Z,12.80
2023-03-17T12:11:15.301Z,12.80
2023-03-17T12:13:59.819Z,12.80
2023-03-17T12:16:43.873Z,12.90
2023-03-17T12:19:36.989Z,12.90
2023-03-17T12:22:14.471Z,12.80
2023-03-17T12:24:52.542Z,12.90
2023-03-17T12:27:31.790Z,12.80
2023-03-17T12:30:17.677Z,12.90
2023-03-17T12:33:18.791Z,12.90
2023-03-17T12:35:47.242Z,12.90
2023-03-17T12:38:38.323Z,12.90
2023-03-17T12:41:31.574Z,12.90
2023-03-17T12:44:28.798Z,12.90
2023-03-17T12:47:13.024Z,12.90
2023-03-17T12:50:13.504Z,12.90
2023-03-17T12:53:02.600Z,13.00
2023-03-17T12:55:33.885Z,13.00
2023-03-17T12:58:15.732Z,13.00
2023-03-17T13:00:58.467Z,13.00
2023-03-17T13:03:37.107Z,13.00
2023-03-17T13:06:08.768Z,13.00
2023-03-17T13:08:41.154Z,13.00
2023-03-17T13:11:18.654Z,13.10
2023-03-17T13:13:49.720Z,13.10
2023-03-17T13:16:39.329Z,13.10
2023-03-17T13:19:15.148Z,13.00
2023-03-17T13:21:51.638Z,13.00
2023-03-17T13:24:22.760Z,12.90
2023-03-17T13:27:01.856Z,12.90
2023-03-17T13:29:32.851Z,12.90
2023-03-17T13:32:16.883Z,12.90
2023-03-17T13:34:48.908Z,12.90
2023-03-17T13:37:42.302Z,12.90
2023-03-17T13:40:48.754Z,12.80
2023-03-17T13:43:33.733Z,12.90
2023-03-17T13:46:38.982Z,12.90
2023-03-17T13:49:18.759Z,13.00
2023-03-17T13:52:00.050Z,13.10
2023-03-17T13:54:28.372Z,13.10
2023-03-17T13:57:28.581Z,13.20
2023-03-17T14:00:24.566Z,13.30
2023-03-17T14:03:16.450Z,13.40
2023-03-17T14:05:49.255Z,13.70
2023-03-17T14:08:37.473Z,14.00
2023-03-17T14:13:27.967Z,14.40
2023-03-17T14:16:04.774Z,14.40
2023-03-17T14:18:40.426Z,14.50
2023-03-17T14:21:33.378Z,14.50
2023-03-17T14:24:04.339Z,14.50
2023-03-17T14:26:32.927Z,14.50
2023-03-17T14:29:03.721Z,14.50
2023-03-17T14:31:32.098Z,14.60
2023-03-17T14:34:01.409Z,14.70
2023-03-17T14:36:34.506Z,14.80
2023-03-17T14:39:02.406Z,14.80
2023-03-17T14:41:32.217Z,14.80
2023-03-17T14:44:02.083Z,14.80
2023-03-17T14:46:38.737Z,14.80
2023-03-17T14:49:21.006Z,14.80
2023-03-17T14:51:53.434Z,14.80
2023-03-17T14:54:26.637Z,14.80
2023-03-17T14:57:05.918Z,14.80
2023-03-17T14:59:42.857Z,14.80
2023-03-17T15:02:34.506Z,14.70
2023-03-17T15:05:14.468Z,14.80
2023-03-17T15:07:42.989Z,14.90
2023-03-17T15:10:16.575Z,14.90
2023-03-17T15:12:46.760Z,14.90
2023-03-17T15:15:21.998Z,15.00
2023-03-17T15:17:56.978Z,15.00
2023-03-17T15:20:27.578Z,15.00
2023-03-17T15:22:55.669Z,15.00
2023-03-17T15:25:40.073Z,15.10
2023-03-17T15:28:19.483Z,15.30
2023-03-17T15:30:52.810Z,15.30
2023-03-17T15:33:32.248Z,15.30
2023-03-17T15:36:02.934Z,15.40
2023-03-17T15:38:31.590Z,15.40
2023-03-17T15:40:59.281Z,15.30
2023-03-17T15:43:27.270Z,15.30
2023-03-17T15:45:59.886Z,15.30
2023-03-17T15:48:31.546Z,15.20
2023-03-17T15:51:01.454Z,15.20
2023-03-17T15:53:31.212Z,15.10
2023-03-17T15:55:59.279Z,15.10
2023-03-17T15:58:27.610Z,15.00
2023-03-17T16:00:59.254Z,15.00
2023-03-17T16:03:35.287Z,15.00
2023-03-17T16:06:07.363Z,14.90
2023-03-17T16:08:35.504Z,15.00
2023-03-17T16:11:03.449Z,15.00
2023-03-17T16:13:33.652Z,15.00
2023-03-17T16:16:05.471Z,14.90
2023-03-17T16:18:37.724Z,15.00
2023-03-17T16:21:05.665Z,15.00
2023-03-17T16:23:37.706Z,14.90
2023-03-17T16:26:14.633Z,14.80
2023-03-17T16:28:45.620Z,14.70
2023-03-17T16:31:19.614Z,14.60
2023-03-17T16:33:48.225Z,14.60
2023-03-17T16:36:18.194Z,14.50
2023-03-17T16:38:46.748Z,14.50
2023-03-17T16:41:27.518Z,14.50
2023-03-17T16:44:01.552Z,14.50
2023-03-17T16:46:36.438Z,14.40
2023-03-17T16:49:07.745Z,14.30
2023-03-17T16:51:35.557Z,14.30
2023-03-17T16:54:06.442Z,14.20
2023-03-17T16:56:34.350Z,14.20
2023-03-17T16:59:02.388Z,14.10
2023-03-17T17:01:30.966Z,14.10
2023-03-17T17:03:59.235Z,14.10
2023-03-17T17:06:27.065Z,14.10
2023-03-17T17:08:57.546Z,14.10
2023-03-17T17:11:25.288Z,14.00
2023-03-17T17:13:53.509Z,14.00
2023-03-17T17:16:28.334Z,13.90
2023-03-17T17:18:57.805Z,13.90
2023-03-17T17:21:26.320Z,13.80
2023-03-17T17:23:55.321Z,13.80
2023-03-17T17:26:23.179Z,13.70
2023-03-17T17:28:51.329Z,13.70
2023-03-17T17:31:19.145Z,13.60
2023-03-17T17:33:47.263Z,13.60
2023-03-17T17:36:16.949Z,13.60
2023-03-17T17:38:45.915Z,13.50
2023-03-17T17:41:14.237Z,13.50
2023-03-17T17:43:42.420Z,13.50
2023-03-17T17:46:12.574Z,13.50
2023-03-17T17:48:40.993Z,13.40
2023-03-17T17:51:08.887Z,13.40
2023-03-17T17:53:36.982Z,13.40
2023-03-17T17:56:05.168Z,13.30
2023-03-17T17:58:33.323Z,13.20
2023-03-17T18:01:01.743Z,13.20
2023-03-17T18:03:32.658Z,13.10
2023-03-17T18:06:01.150Z,13.10
2023-03-17T18:08:29.204Z,13.00
2023-03-17T18:10:59.282Z,13.00
2023-03-17T18:13:27.499Z,13.00
2023-03-17T18:15:55.412Z,13.00
2023-03-17T18:18:23.590Z,13.00
2023-03-17T18:20:52.627Z,12.90
2023-03-17T18:23:21.160Z,12.80
2023-03-17T18:25:49.594Z,12.80
2023-03-17T18:28:18.074Z,12.80
2023-03-17T18:30:46.155Z,12.80
2023-03-17T18:33:24.954Z,12.80
2023-03-17T18:35:55.435Z,12.70
2023-03-17T18:38:23.761Z,12.60
2023-03-17T18:40:52.170Z,12.60
2023-03-17T18:43:22.043Z,12.60
2023-03-17T18:45:49.841Z,12.60
2023-03-17T18:48:18.041Z,12.50
2023-03-17T18:50:47.054Z,12.50
2023-03-17T18:53:19.699Z,12.50
2023-03-17T18:55:47.464Z,12.50
2023-03-17T18:58:15.554Z,12.40
2023-03-17T19:00:43.529Z,12.40
2023-03-17T19:05:25.638Z,12.40
2023-03-17T19:07:53.836Z,12.40
2023-03-17T19:10:21.705Z,12.30
2023-03-17T19:12:50.673Z,12.30
2023-03-17T19:15:21.736Z,12.30
2023-03-17T19:17:50.473Z,12.30
2023-03-17T19:20:20.802Z,12.20
2023-03-17T19:22:48.983Z,12.20
2023-03-17T19:25:17.259Z,12.20
2023-03-17T19:27:45.367Z,12.10
2023-03-17T19:30:14.240Z,12.10
2023-03-17T19:32:42.343Z,12.10
2023-03-17T19:35:10.814Z,12.10
2023-03-17T19:37:38.988Z,12.00
2023-03-17T19:40:10.454Z,12.00
2023-03-17T19:42:38.554Z,12.00
2023-03-17T19:45:08.080Z,12.00
2023-03-17T19:47:36.339Z,11.90
2023-03-17T19:50:04.258Z,11.90
2023-03-17T19:52:32.262Z,11.90
2023-03-17T19:55:02.981Z,11.80
2023-03-17T19:57:32.081Z,11.80
2023-03-17T20:00:00.215Z,11.70
2023-03-17T20:02:28.422Z,11.70
2023-03-17T20:04:56.213Z,11.70
2023-03-17T20:07:24.548Z,11.70
2023-03-17T20:09:55.154Z,11.60
2023-03-17T20:12:23.288Z,11.60
2023-03-17T20:14:53.393Z,11.60
2023-03-17T20:17:21.646Z,11.60
2023-03-17T20:19:49.354Z,11.60
2023-03-17T20:22:17.478Z,11.60
2023-03-17T20:24:45.822Z,11.60
2023-03-17T20:27:15.950Z,11.50
2023-03-17T20:29:44.562Z,11.60
2023-03-17T20:32:14.939Z,11.50
2023-03-17T20:34:43.886Z,11.50
2023-03-17T20:37:14.216Z,11.40
2023-03-17T20:39:42.409Z,11.50
2023-03-17T20:42:14.560Z,11.40
2023-03-17T20:44:42.970Z,11.40
2023-03-17T20:47:11.500Z,11.40
2023-03-17T20:49:39.295Z,11.30
2023-03-17T20:52:08.676Z,11.40
2023-03-17T20:54:36.420Z,11.40
2023-03-17T20:57:04.853Z,11.40
2023-03-17T20:59:34.532Z,11.30
2023-03-17T21:02:05.008Z,11.40
2023-03-17T21:04:32.887Z,11.40
2023-03-17T21:07:02.032Z,11.40
2023-03-17T21:09:29.842Z,11.30
2023-03-17T21:11:58.014Z,11.30
2023-03-17T21:14:28.884Z,11.30
2023-03-17T21:16:57.845Z,11.30
2023-03-17T21:19:25.967Z,11.20
2023-03-17T21:21:54.616Z,11.20
2023-03-17T21:24:31.234Z,11.20
2023-03-17T21:27:01.304Z,11.30
2023-03-17T21:29:30.775Z,11.30
2023-03-17T21:32:00.996Z,11.30
2023-03-17T21:34:30.760Z,11.30
2023-03-17T21:37:02.170Z,11.30
2023-03-17T21:39:30.297Z,11.30
2023-03-17T21:41:58.775Z,11.30
2023-03-17T21:44:26.488Z,11.30
2023-03-17T21:46:56.855Z,11.30
2023-03-17T21:49:24.885Z,11.30
2023-03-17T21:51:52.960Z,11.30
2023-03-17T21:54:22.613Z,11.30
2023-03-17T21:56:53.472Z,11.30
2023-03-17T21:59:21.236Z,11.30
2023-03-17T22:01:52.186Z,11.30
2023-03-17T22:04:20.069Z,11.20
2023-03-17T22:06:48.081Z,11.30
2023-03-17T22:09:18.196Z,11.20
2023-03-17T22:11:47.436Z,11.20
2023-03-17T22:14:19.873Z,11.20
2023-03-17T22:16:49.468Z,11.20
2023-03-17T22:19:19.952Z,11.20
2023-03-17T22:21:49.722Z,11.20
2023-03-17T22:24:17.946Z,11.10
2023-03-17T22:26:46.662Z,11.10
2023-03-17T22:29:15.356Z,11.10
2023-03-17T22:31:43.544Z,11.10
2023-03-17T22:34:11.413Z,11.10
2023-03-17T22:36:39.936Z,11.10
2023-03-17T22:39:10.939Z,11.10
2023-03-17T22:41:39.557Z,11.10
2023-03-17T22:44:09.286Z,11.20
2023-03-17T22:46:40.804Z,11.20
2023-03-17T22:49:08.958Z,11.20
2023-03-17T22:51:37.984Z,11.30
2023-03-17T22:54:06.217Z,11.30
2023-03-17T22:56:35.003Z,11.30
2023-03-17T22:59:03.129Z,11.30
2023-03-17T23:01:31.922Z,11.30
2023-03-17T23:03:59.978Z,11.30
2023-03-17T23:06:28.160Z,11.30
2023-03-17T23:08:56.179Z,11.20
2023-03-17T23:11:26.039Z,11.20
2023-03-17T23:13:54.882Z,11.20
2023-03-17T23:16:23.631Z,11.20
2023-03-17T23:18:51.696Z,11.20
2023-03-17T23:21:30.429Z,11.20
2023-03-17T23:23:58.928Z,11.20
2023-03-17T23:26:27.701Z,11.20
2023-03-17T23:28:56.210Z,11.10
2023-03-17T23:31:25.612Z,11.10
2023-03-17T23:33:56.691Z,11.10
2023-03-17T23:36:25.614Z,11.10
2023-03-17T23:38:53.551Z,11.10
2023-03-17T23:41:21.717Z,11.10
2023-03-17T23:43:50.034Z,11.10
2023-03-17T23:46:20.834Z,11.10
2023-03-17T23:48:52.346Z,11.10
2023-03-17T23:51:20.846Z,11.00
2023-03-17T23:53:50.681Z,11.10
2023-03-17T23:56:20.692Z,11.00
2023-03-17T23:58:49.236Z,11.10
